Terminal Aerodrome Forecast
Issued by NWS

Home | Current Version | Previous Version | Text Only | Print | Product List | Glossary On
Versions: 1 2 3 4 5 6 7 8 9 10 11 12 13 14 15 16 17 18 19 20 21 22 23 24 25 26 27 28 29 30
000
FTUS43 KLOT 242200 AAB
TAFGYY
TAF AMD
KGYY 242200Z 2422/2518 15018G27KT P6SM SCT060 OVC150
     FM250000 14013G20KT P6SM BKN060
     FM250300 14011KT P6SM VCSH BKN060
     FM250500 08007KT 5SM -SHRA SCT007 OVC015
     FM251000 34010KT P6SM BKN020
     FM251300 33010G17KT P6SM SCT040=

USA.gov is the U.S. government's official web portal to all federal, state and local government web resources and services.